sensor_id;sensor_type;location;lat;lon;timestamp;P1;durP1;ratioP1;P2;durP2;ratioP2
49051;SDS011;34866;48.670;18.260;2024-02-15T00:00:09;14.30;;;7.00;;
49051;SDS011;34866;48.670;18.260;2024-02-15T00:02:36;16.95;;;7.38;;
49051;SDS011;34866;48.670;18.260;2024-02-15T00:05:03;14.30;;;6.22;;
49051;SDS011;34866;48.670;18.260;2024-02-15T00:07:30;13.43;;;6.60;;
49051;SDS011;34866;48.670;18.260;2024-02-15T00:09:56;16.70;;;7.60;;
49051;SDS011;34866;48.670;18.260;2024-02-15T00:12:24;18.38;;;7.53;;
49051;SDS011;34866;48.670;18.260;2024-02-15T00:14:50;13.77;;;7.15;;
49051;SDS011;34866;48.670;18.260;2024-02-15T00:17:16;14.93;;;7.38;;
49051;SDS011;34866;48.670;18.260;2024-02-15T00:19:43;15.45;;;6.40;;
49051;SDS011;34866;48.670;18.260;2024-02-15T00:22:09;14.82;;;6.90;;
49051;SDS011;34866;48.670;18.260;2024-02-15T00:24:38;16.08;;;7.65;;
49051;SDS011;34866;48.670;18.260;2024-02-15T00:27:06;18.45;;;7.07;;
49051;SDS011;34866;48.670;18.260;2024-02-15T00:29:32;14.23;;;6.47;;
49051;SDS011;34866;48.670;18.260;2024-02-15T00:31:59;16.67;;;6.20;;
49051;SDS011;34866;48.670;18.260;2024-02-15T00:34:26;16.52;;;8.30;;
49051;SDS011;34866;48.670;18.260;2024-02-15T00:36:52;13.93;;;7.35;;
49051;SDS011;34866;48.670;18.260;2024-02-15T00:39:18;16.50;;;7.32;;
49051;SDS011;34866;48.670;18.260;2024-02-15T00:41:45;16.05;;;6.88;;
49051;SDS011;34866;48.670;18.260;2024-02-15T00:44:11;19.15;;;8.63;;
49051;SDS011;34866;48.670;18.260;2024-02-15T00:46:37;24.92;;;9.32;;
49051;SDS011;34866;48.670;18.260;2024-02-15T00:49:04;25.88;;;10.13;;
49051;SDS011;34866;48.670;18.260;2024-02-15T00:51:33;26.38;;;9.85;;
49051;SDS011;34866;48.670;18.260;2024-02-15T00:53:59;27.48;;;10.20;;
49051;SDS011;34866;48.670;18.260;2024-02-15T00:56:26;21.27;;;10.60;;
49051;SDS011;34866;48.670;18.260;2024-02-15T00:58:53;20.30;;;8.80;;
49051;SDS011;34866;48.670;18.260;2024-02-15T01:01:19;22.17;;;10.25;;
49051;SDS011;34866;48.670;18.260;2024-02-15T01:03:45;22.63;;;10.48;;
49051;SDS011;34866;48.670;18.260;2024-02-15T01:06:11;18.48;;;9.05;;
49051;SDS011;34866;48.670;18.260;2024-02-15T01:08:37;17.27;;;8.95;;
49051;SDS011;34866;48.670;18.260;2024-02-15T01:11:04;20.63;;;9.45;;
49051;SDS011;34866;48.670;18.260;2024-02-15T01:13:31;18.52;;;9.15;;
49051;SDS011;34866;48.670;18.260;2024-02-15T01:15:57;23.50;;;10.48;;
49051;SDS011;34866;48.670;18.260;2024-02-15T01:18:23;21.83;;;9.68;;
49051;SDS011;34866;48.670;18.260;2024-02-15T01:20:49;19.98;;;10.52;;
49051;SDS011;34866;48.670;18.260;2024-02-15T01:23:15;24.17;;;11.38;;
49051;SDS011;34866;48.670;18.260;2024-02-15T01:25:41;21.08;;;10.80;;
49051;SDS011;34866;48.670;18.260;2024-02-15T01:28:07;24.77;;;10.05;;
49051;SDS011;34866;48.670;18.260;2024-02-15T01:30:33;21.98;;;9.52;;
49051;SDS011;34866;48.670;18.260;2024-02-15T01:33:01;30.45;;;11.15;;
49051;SDS011;34866;48.670;18.260;2024-02-15T01:35:27;26.95;;;11.52;;
49051;SDS011;34866;48.670;18.260;2024-02-15T01:37:53;20.30;;;9.18;;
49051;SDS011;34866;48.670;18.260;2024-02-15T01:40:20;23.20;;;10.30;;
49051;SDS011;34866;48.670;18.260;2024-02-15T01:42:46;19.42;;;9.60;;
49051;SDS011;34866;48.670;18.260;2024-02-15T01:45:14;22.85;;;9.80;;
49051;SDS011;34866;48.670;18.260;2024-02-15T01:47:40;26.70;;;11.25;;
49051;SDS011;34866;48.670;18.260;2024-02-15T01:50:06;18.50;;;9.25;;
49051;SDS011;34866;48.670;18.260;2024-02-15T01:52:32;26.10;;;9.98;;
49051;SDS011;34866;48.670;18.260;2024-02-15T01:54:58;22.33;;;9.70;;
49051;SDS011;34866;48.670;18.260;2024-02-15T01:57:25;18.08;;;7.22;;
49051;SDS011;34866;48.670;18.260;2024-02-15T01:59:52;16.15;;;8.65;;
49051;SDS011;34866;48.670;18.260;2024-02-15T02:02:18;21.23;;;9.15;;
49051;SDS011;34866;48.670;18.260;2024-02-15T02:04:46;22.98;;;9.32;;
49051;SDS011;34866;48.670;18.260;2024-02-15T02:07:12;22.08;;;9.98;;
49051;SDS011;34866;48.670;18.260;2024-02-15T02:09:39;17.67;;;8.75;;
49051;SDS011;34866;48.670;18.260;2024-02-15T02:12:06;20.63;;;8.23;;
49051;SDS011;34866;48.670;18.260;2024-02-15T02:14:32;19.17;;;9.18;;
49051;SDS011;34866;48.670;18.260;2024-02-15T02:17:19;17.52;;;8.02;;
49051;SDS011;34866;48.670;18.260;2024-02-15T02:19:46;22.52;;;8.65;;
49051;SDS011;34866;48.670;18.260;2024-02-15T02:22:15;14.65;;;9.15;;
49051;SDS011;34866;48.670;18.260;2024-02-15T02:25:04;14.60;;;6.88;;
49051;SDS011;34866;48.670;18.260;2024-02-15T02:27:35;17.83;;;9.10;;
49051;SDS011;34866;48.670;18.260;2024-02-15T02:32:57;19.42;;;8.65;;
49051;SDS011;34866;48.670;18.260;2024-02-15T02:35:24;20.38;;;8.98;;
49051;SDS011;34866;48.670;18.260;2024-02-15T02:37:50;24.33;;;9.68;;
49051;SDS011;34866;48.670;18.260;2024-02-15T02:40:18;23.90;;;9.50;;
49051;SDS011;34866;48.670;18.260;2024-02-15T02:42:54;19.90;;;8.35;;
49051;SDS011;34866;48.670;18.260;2024-02-15T02:45:27;23.30;;;8.40;;
49051;SDS011;34866;48.670;18.260;2024-02-15T02:47:53;15.85;;;8.25;;
49051;SDS011;34866;48.670;18.260;2024-02-15T02:50:20;20.45;;;8.60;;
49051;SDS011;34866;48.670;18.260;2024-02-15T02:52:46;17.70;;;8.35;;
49051;SDS011;34866;48.670;18.260;2024-02-15T02:55:13;23.13;;;8.93;;
49051;SDS011;34866;48.670;18.260;2024-02-15T02:57:40;20.30;;;8.77;;
49051;SDS011;34866;48.670;18.260;2024-02-15T03:00:10;19.92;;;8.48;;
49051;SDS011;34866;48.670;18.260;2024-02-15T03:02:43;15.32;;;8.93;;
49051;SDS011;34866;48.670;18.260;2024-02-15T03:05:09;18.73;;;8.93;;
49051;SDS011;34866;48.670;18.260;2024-02-15T03:07:38;21.02;;;8.45;;
49051;SDS011;34866;48.670;18.260;2024-02-15T03:10:08;20.00;;;9.45;;
49051;SDS011;34866;48.670;18.260;2024-02-15T03:12:39;21.75;;;8.90;;
49051;SDS011;34866;48.670;18.260;2024-02-15T03:15:08;19.48;;;9.05;;
49051;SDS011;34866;48.670;18.260;2024-02-15T03:17:40;14.05;;;7.55;;
49051;SDS011;34866;48.670;18.260;2024-02-15T03:20:07;15.23;;;7.68;;
49051;SDS011;34866;48.670;18.260;2024-02-15T03:22:55;15.40;;;7.80;;
49051;SDS011;34866;48.670;18.260;2024-02-15T03:25:21;16.27;;;7.63;;
49051;SDS011;34866;48.670;18.260;2024-02-15T03:27:53;17.40;;;8.38;;
49051;SDS011;34866;48.670;18.260;2024-02-15T03:30:21;15.63;;;6.65;;
49051;SDS011;34866;48.670;18.260;2024-02-15T03:32:47;18.92;;;8.10;;
49051;SDS011;34866;48.670;18.260;2024-02-15T03:35:16;14.57;;;7.18;;
49051;SDS011;34866;48.670;18.260;2024-02-15T03:37:43;20.02;;;8.77;;
49051;SDS011;34866;48.670;18.260;2024-02-15T03:40:09;21.70;;;8.02;;
49051;SDS011;34866;48.670;18.260;2024-02-15T03:42:35;14.65;;;7.47;;
49051;SDS011;34866;48.670;18.260;2024-02-15T03:45:02;16.58;;;8.00;;
49051;SDS011;34866;48.670;18.260;2024-02-15T03:47:28;16.58;;;7.82;;
49051;SDS011;34866;48.670;18.260;2024-02-15T03:49:54;17.38;;;7.72;;
49051;SDS011;34866;48.670;18.260;2024-02-15T03:52:21;16.80;;;7.20;;
49051;SDS011;34866;48.670;18.260;2024-02-15T03:54:47;19.15;;;7.95;;
49051;SDS011;34866;48.670;18.260;2024-02-15T03:57:16;17.88;;;8.02;;
49051;SDS011;34866;48.670;18.260;2024-02-15T03:59:47;18.23;;;8.45;;
49051;SDS011;34866;48.670;18.260;2024-02-15T04:02:18;21.73;;;7.35;;
49051;SDS011;34866;48.670;18.260;2024-02-15T04:04:44;16.90;;;7.18;;
49051;SDS011;34866;48.670;18.260;2024-02-15T04:07:15;12.70;;;7.47;;
49051;SDS011;34866;48.670;18.260;2024-02-15T04:09:42;18.27;;;8.98;;
49051;SDS011;34866;48.670;18.260;2024-02-15T04:12:08;17.88;;;7.85;;
49051;SDS011;34866;48.670;18.260;2024-02-15T04:14:34;17.35;;;8.38;;
49051;SDS011;34866;48.670;18.260;2024-02-15T04:17:00;17.38;;;8.65;;
49051;SDS011;34866;48.670;18.260;2024-02-15T04:19:27;19.88;;;7.95;;
49051;SDS011;34866;48.670;18.260;2024-02-15T04:21:53;16.00;;;8.07;;
49051;SDS011;34866;48.670;18.260;2024-02-15T04:24:21;15.63;;;7.82;;
49051;SDS011;34866;48.670;18.260;2024-02-15T04:26:48;15.50;;;8.00;;
49051;SDS011;34866;48.670;18.260;2024-02-15T04:29:17;18.45;;;7.70;;
49051;SDS011;34866;48.670;18.260;2024-02-15T04:31:45;22.08;;;8.73;;
49051;SDS011;34866;48.670;18.260;2024-02-15T04:34:15;15.55;;;6.70;;
49051;SDS011;34866;48.670;18.260;2024-02-15T04:36:43;17.33;;;7.38;;
49051;SDS011;34866;48.670;18.260;2024-02-15T04:39:10;16.35;;;7.68;;
49051;SDS011;34866;48.670;18.260;2024-02-15T04:41:40;16.25;;;7.80;;
49051;SDS011;34866;48.670;18.260;2024-02-15T04:44:07;15.98;;;8.77;;
49051;SDS011;34866;48.670;18.260;2024-02-15T04:46:42;12.93;;;6.78;;
49051;SDS011;34866;48.670;18.260;2024-02-15T04:49:10;21.87;;;7.73;;
49051;SDS011;34866;48.670;18.260;2024-02-15T04:51:36;16.65;;;9.10;;
49051;SDS011;34866;48.670;18.260;2024-02-15T04:54:04;16.80;;;8.52;;
49051;SDS011;34866;48.670;18.260;2024-02-15T04:56:32;19.48;;;8.63;;
49051;SDS011;34866;48.670;18.260;2024-02-15T04:58:59;18.08;;;8.00;;
49051;SDS011;34866;48.670;18.260;2024-02-15T05:01:27;17.58;;;9.25;;
49051;SDS011;34866;48.670;18.260;2024-02-15T05:03:54;15.75;;;8.57;;
49051;SDS011;34866;48.670;18.260;2024-02-15T05:06:21;15.73;;;8.25;;
49051;SDS011;34866;48.670;18.260;2024-02-15T05:08:48;15.75;;;8.65;;
49051;SDS011;34866;48.670;18.260;2024-02-15T05:11:14;20.10;;;9.82;;
49051;SDS011;34866;48.670;18.260;2024-02-15T05:13:44;16.80;;;8.20;;
49051;SDS011;34866;48.670;18.260;2024-02-15T05:16:10;20.00;;;8.45;;
49051;SDS011;34866;48.670;18.260;2024-02-15T05:18:36;23.30;;;9.48;;
49051;SDS011;34866;48.670;18.260;2024-02-15T05:21:05;19.15;;;8.95;;
49051;SDS011;34866;48.670;18.260;2024-02-15T05:23:37;25.88;;;8.15;;
49051;SDS011;34866;48.670;18.260;2024-02-15T05:26:05;18.20;;;9.40;;
49051;SDS011;34866;48.670;18.260;2024-02-15T05:28:31;22.88;;;9.98;;
49051;SDS011;34866;48.670;18.260;2024-02-15T05:33:42;20.50;;;8.93;;
49051;SDS011;34866;48.670;18.260;2024-02-15T05:36:11;17.55;;;8.23;;
49051;SDS011;34866;48.670;18.260;2024-02-15T05:38:38;23.20;;;9.55;;
49051;SDS011;34866;48.670;18.260;2024-02-15T05:41:04;20.98;;;10.02;;
49051;SDS011;34866;48.670;18.260;2024-02-15T05:43:32;26.45;;;10.23;;
49051;SDS011;34866;48.670;18.260;2024-02-15T05:45:58;20.88;;;9.00;;
49051;SDS011;34866;48.670;18.260;2024-02-15T05:48:26;19.90;;;10.45;;
49051;SDS011;34866;48.670;18.260;2024-02-15T05:50:53;18.77;;;9.98;;
49051;SDS011;34866;48.670;18.260;2024-02-15T05:53:20;22.52;;;10.15;;
49051;SDS011;34866;48.670;18.260;2024-02-15T05:55:46;21.45;;;10.15;;
49051;SDS011;34866;48.670;18.260;2024-02-15T05:58:14;23.50;;;11.55;;
49051;SDS011;34866;48.670;18.260;2024-02-15T06:00:42;25.80;;;9.75;;
49051;SDS011;34866;48.670;18.260;2024-02-15T06:03:09;25.45;;;10.15;;
49051;SDS011;34866;48.670;18.260;2024-02-15T06:05:42;20.23;;;10.25;;
49051;SDS011;34866;48.670;18.260;2024-02-15T06:08:10;17.70;;;9.35;;
49051;SDS011;34866;48.670;18.260;2024-02-15T06:10:40;25.77;;;9.23;;
49051;SDS011;34866;48.670;18.260;2024-02-15T06:13:06;26.27;;;10.20;;
49051;SDS011;34866;48.670;18.260;2024-02-15T06:15:35;22.38;;;10.45;;
49051;SDS011;34866;48.670;18.260;2024-02-15T06:18:02;25.13;;;11.75;;
49051;SDS011;34866;48.670;18.260;2024-02-15T06:20:34;20.70;;;10.65;;
49051;SDS011;34866;48.670;18.260;2024-02-15T06:23:00;29.15;;;11.20;;
49051;SDS011;34866;48.670;18.260;2024-02-15T06:25:31;21.88;;;12.50;;
49051;SDS011;34866;48.670;18.260;2024-02-15T06:27:58;19.15;;;10.40;;
49051;SDS011;34866;48.670;18.260;2024-02-15T06:30:27;27.50;;;12.38;;
49051;SDS011;34866;48.670;18.260;2024-02-15T06:33:12;24.38;;;10.68;;
49051;SDS011;34866;48.670;18.260;2024-02-15T06:36:05;16.42;;;9.57;;
49051;SDS011;34866;48.670;18.260;2024-02-15T06:38:53;17.45;;;10.27;;
49051;SDS011;34866;48.670;18.260;2024-02-15T06:41:38;19.17;;;9.20;;
49051;SDS011;34866;48.670;18.260;2024-02-15T06:44:05;19.05;;;9.00;;
49051;SDS011;34866;48.670;18.260;2024-02-15T06:46:32;18.17;;;9.45;;
49051;SDS011;34866;48.670;18.260;2024-02-15T06:48:58;23.90;;;11.40;;
49051;SDS011;34866;48.670;18.260;2024-02-15T06:51:24;18.63;;;9.15;;
49051;SDS011;34866;48.670;18.260;2024-02-15T06:53:50;22.25;;;10.00;;
49051;SDS011;34866;48.670;18.260;2024-02-15T06:56:20;19.38;;;8.60;;
49051;SDS011;34866;48.670;18.260;2024-02-15T06:58:46;21.00;;;9.70;;
49051;SDS011;34866;48.670;18.260;2024-02-15T07:01:13;17.90;;;8.40;;
49051;SDS011;34866;48.670;18.260;2024-02-15T07:03:41;30.30;;;9.82;;
49051;SDS011;34866;48.670;18.260;2024-02-15T07:06:09;24.35;;;11.15;;
49051;SDS011;34866;48.670;18.260;2024-02-15T07:08:35;22.27;;;9.88;;
49051;SDS011;34866;48.670;18.260;2024-02-15T07:11:01;16.13;;;9.02;;
49051;SDS011;34866;48.670;18.260;2024-02-15T07:13:30;19.13;;;11.02;;
49051;SDS011;34866;48.670;18.260;2024-02-15T07:15:56;22.30;;;10.25;;
49051;SDS011;34866;48.670;18.260;2024-02-15T07:18:22;22.45;;;9.02;;
49051;SDS011;34866;48.670;18.260;2024-02-15T07:20:50;19.27;;;9.13;;
49051;SDS011;34866;48.670;18.260;2024-02-15T07:23:17;20.85;;;10.10;;
49051;SDS011;34866;48.670;18.260;2024-02-15T07:25:43;15.88;;;8.50;;
49051;SDS011;34866;48.670;18.260;2024-02-15T07:28:13;21.20;;;9.63;;
49051;SDS011;34866;48.670;18.260;2024-02-15T07:30:41;27.83;;;9.70;;
49051;SDS011;34866;48.670;18.260;2024-02-15T07:33:07;18.95;;;8.90;;
49051;SDS011;34866;48.670;18.260;2024-02-15T07:35:33;17.55;;;7.63;;
49051;SDS011;34866;48.670;18.260;2024-02-15T07:38:00;15.57;;;8.23;;
49051;SDS011;34866;48.670;18.260;2024-02-15T07:40:26;20.08;;;9.15;;
49051;SDS011;34866;48.670;18.260;2024-02-15T07:42:56;21.75;;;9.80;;
49051;SDS011;34866;48.670;18.260;2024-02-15T07:45:23;22.75;;;9.25;;
49051;SDS011;34866;48.670;18.260;2024-02-15T07:47:49;20.42;;;9.65;;
49051;SDS011;34866;48.670;18.260;2024-02-15T07:50:18;17.20;;;9.15;;
49051;SDS011;34866;48.670;18.260;2024-02-15T07:52:46;24.17;;;9.93;;
49051;SDS011;34866;48.670;18.260;2024-02-15T07:55:13;19.55;;;9.57;;
49051;SDS011;34866;48.670;18.260;2024-02-15T07:57:40;18.70;;;9.50;;
49051;SDS011;34866;48.670;18.260;2024-02-15T08:00:06;24.13;;;9.40;;
49051;SDS011;34866;48.670;18.260;2024-02-15T08:02:39;26.27;;;10.52;;
49051;SDS011;34866;48.670;18.260;2024-02-15T08:05:06;19.42;;;8.73;;
49051;SDS011;34866;48.670;18.260;2024-02-15T08:07:36;17.63;;;7.53;;
49051;SDS011;34866;48.670;18.260;2024-02-15T08:10:02;17.58;;;8.13;;
49051;SDS011;34866;48.670;18.260;2024-02-15T08:12:29;15.45;;;7.97;;
49051;SDS011;34866;48.670;18.260;2024-02-15T08:14:55;19.48;;;7.93;;
49051;SDS011;34866;48.670;18.260;2024-02-15T08:17:23;15.90;;;8.38;;
49051;SDS011;34866;48.670;18.260;2024-02-15T08:19:51;16.70;;;8.13;;
49051;SDS011;34866;48.670;18.260;2024-02-15T08:22:17;19.45;;;8.40;;
49051;SDS011;34866;48.670;18.260;2024-02-15T08:24:48;19.48;;;8.65;;
49051;SDS011;34866;48.670;18.260;2024-02-15T08:27:14;18.52;;;8.48;;
49051;SDS011;34866;48.670;18.260;2024-02-15T08:29:41;16.65;;;8.05;;
49051;SDS011;34866;48.670;18.260;2024-02-15T08:32:07;15.90;;;8.30;;
49051;SDS011;34866;48.670;18.260;2024-02-15T08:34:33;23.90;;;10.38;;
49051;SDS011;34866;48.670;18.260;2024-02-15T08:36:59;18.27;;;8.48;;
49051;SDS011;34866;48.670;18.260;2024-02-15T08:39:26;17.20;;;8.65;;
49051;SDS011;34866;48.670;18.260;2024-02-15T08:41:52;18.73;;;8.40;;
49051;SDS011;34866;48.670;18.260;2024-02-15T08:44:18;18.05;;;7.75;;
49051;SDS011;34866;48.670;18.260;2024-02-15T08:46:46;15.07;;;7.38;;
49051;SDS011;34866;48.670;18.260;2024-02-15T08:49:14;16.50;;;8.18;;
49051;SDS011;34866;48.670;18.260;2024-02-15T08:51:41;18.52;;;8.05;;
49051;SDS011;34866;48.670;18.260;2024-02-15T08:54:07;21.08;;;8.70;;
49051;SDS011;34866;48.670;18.260;2024-02-15T08:56:35;18.58;;;7.63;;
49051;SDS011;34866;48.670;18.260;2024-02-15T08:59:01;18.13;;;7.43;;
49051;SDS011;34866;48.670;18.260;2024-02-15T09:01:27;14.48;;;7.05;;
49051;SDS011;34866;48.670;18.260;2024-02-15T09:03:53;20.55;;;8.93;;
49051;SDS011;34866;48.670;18.260;2024-02-15T09:06:21;17.02;;;7.13;;
49051;SDS011;34866;48.670;18.260;2024-02-15T09:08:48;22.23;;;8.18;;
49051;SDS011;34866;48.670;18.260;2024-02-15T09:11:14;17.38;;;7.10;;
49051;SDS011;34866;48.670;18.260;2024-02-15T09:13:40;15.15;;;7.90;;
49051;SDS011;34866;48.670;18.260;2024-02-15T09:16:06;16.50;;;7.88;;
49051;SDS011;34866;48.670;18.260;2024-02-15T09:18:32;14.07;;;7.20;;
49051;SDS011;34866;48.670;18.260;2024-02-15T09:21:03;13.82;;;7.28;;
49051;SDS011;34866;48.670;18.260;2024-02-15T09:23:30;18.58;;;8.43;;
49051;SDS011;34866;48.670;18.260;2024-02-15T09:25:56;12.73;;;6.97;;
49051;SDS011;34866;48.670;18.260;2024-02-15T09:28:25;18.80;;;7.45;;
49051;SDS011;34866;48.670;18.260;2024-02-15T09:30:51;16.73;;;7.50;;
49051;SDS011;34866;48.670;18.260;2024-02-15T09:33:20;16.13;;;7.68;;
49051;SDS011;34866;48.670;18.260;2024-02-15T09:35:46;18.58;;;7.68;;
49051;SDS011;34866;48.670;18.260;2024-02-15T09:38:13;13.70;;;7.10;;
49051;SDS011;34866;48.670;18.260;2024-02-15T09:40:41;13.10;;;7.07;;
49051;SDS011;34866;48.670;18.260;2024-02-15T09:43:09;16.67;;;7.50;;
49051;SDS011;34866;48.670;18.260;2024-02-15T09:45:38;13.55;;;7.72;;
49051;SDS011;34866;48.670;18.260;2024-02-15T09:48:05;14.43;;;7.10;;
49051;SDS011;34866;48.670;18.260;2024-02-15T09:50:34;18.90;;;8.27;;
49051;SDS011;34866;48.670;18.260;2024-02-15T09:53:00;14.70;;;7.85;;
49051;SDS011;34866;48.670;18.260;2024-02-15T09:55:27;18.60;;;7.07;;
49051;SDS011;34866;48.670;18.260;2024-02-15T09:57:54;20.35;;;7.00;;
49051;SDS011;34866;48.670;18.260;2024-02-15T10:00:20;13.13;;;6.25;;
49051;SDS011;34866;48.670;18.260;2024-02-15T10:02:49;15.45;;;8.07;;
49051;SDS011;34866;48.670;18.260;2024-02-15T10:05:17;15.23;;;7.35;;
49051;SDS011;34866;48.670;18.260;2024-02-15T10:07:44;19.75;;;7.78;;
49051;SDS011;34866;48.670;18.260;2024-02-15T10:12:48;20.15;;;8.43;;
49051;SDS011;34866;48.670;18.260;2024-02-15T10:20:30;13.88;;;6.97;;
49051;SDS011;34866;48.670;18.260;2024-02-15T10:25:31;15.35;;;7.13;;
49051;SDS011;34866;48.670;18.260;2024-02-15T10:30:36;14.82;;;7.40;;
49051;SDS011;34866;48.670;18.260;2024-02-15T10:33:03;19.63;;;7.63;;
49051;SDS011;34866;48.670;18.260;2024-02-15T10:35:29;16.77;;;7.38;;
49051;SDS011;34866;48.670;18.260;2024-02-15T10:38:04;14.13;;;6.82;;
49051;SDS011;34866;48.670;18.260;2024-02-15T10:40:33;16.40;;;6.97;;
49051;SDS011;34866;48.670;18.260;2024-02-15T10:42:59;14.68;;;7.68;;
49051;SDS011;34866;48.670;18.260;2024-02-15T10:45:25;14.52;;;7.15;;
49051;SDS011;34866;48.670;18.260;2024-02-15T10:47:51;15.55;;;7.55;;
49051;SDS011;34866;48.670;18.260;2024-02-15T10:50:18;16.20;;;7.22;;
49051;SDS011;34866;48.670;18.260;2024-02-15T10:55:21;16.13;;;7.72;;
49051;SDS011;34866;48.670;18.260;2024-02-15T10:57:49;12.30;;;6.32;;
49051;SDS011;34866;48.670;18.260;2024-02-15T11:00:17;19.10;;;8.32;;
49051;SDS011;34866;48.670;18.260;2024-02-15T11:05:16;15.43;;;7.15;;
49051;SDS011;34866;48.670;18.260;2024-02-15T11:07:48;14.57;;;7.15;;
49051;SDS011;34866;48.670;18.260;2024-02-15T11:10:14;19.10;;;7.85;;
49051;SDS011;34866;48.670;18.260;2024-02-15T11:12:42;18.67;;;7.00;;
49051;SDS011;34866;48.670;18.260;2024-02-15T11:15:09;13.40;;;7.97;;
49051;SDS011;34866;48.670;18.260;2024-02-15T11:20:05;16.02;;;7.13;;
49051;SDS011;34866;48.670;18.260;2024-02-15T11:22:36;12.57;;;6.65;;
49051;SDS011;34866;48.670;18.260;2024-02-15T11:25:06;15.35;;;7.65;;
49051;SDS011;34866;48.670;18.260;2024-02-15T11:27:37;17.30;;;7.75;;
49051;SDS011;34866;48.670;18.260;2024-02-15T11:30:05;15.35;;;7.65;;
49051;SDS011;34866;48.670;18.260;2024-02-15T11:32:40;17.50;;;8.85;;
49051;SDS011;34866;48.670;18.260;2024-02-15T11:35:10;17.80;;;7.75;;
49051;SDS011;34866;48.670;18.260;2024-02-15T11:42:53;15.02;;;7.15;;
49051;SDS011;34866;48.670;18.260;2024-02-15T11:45:20;13.55;;;6.78;;
49051;SDS011;34866;48.670;18.260;2024-02-15T11:47:49;14.98;;;7.35;;
49051;SDS011;34866;48.670;18.260;2024-02-15T11:50:20;13.38;;;6.57;;
49051;SDS011;34866;48.670;18.260;2024-02-15T11:52:50;13.57;;;6.43;;
49051;SDS011;34866;48.670;18.260;2024-02-15T11:55:24;17.77;;;6.47;;
49051;SDS011;34866;48.670;18.260;2024-02-15T11:58:01;12.90;;;6.72;;
49051;SDS011;34866;48.670;18.260;2024-02-15T12:00:29;19.25;;;7.13;;
49051;SDS011;34866;48.670;18.260;2024-02-15T12:05:59;13.50;;;6.10;;
49051;SDS011;34866;48.670;18.260;2024-02-15T12:08:45;11.70;;;6.15;;
49051;SDS011;34866;48.670;18.260;2024-02-15T12:11:30;17.52;;;6.65;;
49051;SDS011;34866;48.670;18.260;2024-02-15T12:14:14;14.40;;;7.38;;
49051;SDS011;34866;48.670;18.260;2024-02-15T12:17:03;10.05;;;5.82;;
49051;SDS011;34866;48.670;18.260;2024-02-15T12:19:49;14.82;;;6.43;;
49051;SDS011;34866;48.670;18.260;2024-02-15T12:22:21;12.32;;;6.45;;
49051;SDS011;34866;48.670;18.260;2024-02-15T12:24:54;12.90;;;6.35;;
49051;SDS011;34866;48.670;18.260;2024-02-15T12:27:20;14.10;;;6.10;;
49051;SDS011;34866;48.670;18.260;2024-02-15T12:29:56;16.98;;;6.75;;
49051;SDS011;34866;48.670;18.260;2024-02-15T12:32:23;13.23;;;5.15;;
49051;SDS011;34866;48.670;18.260;2024-02-15T12:34:50;12.75;;;5.85;;
49051;SDS011;34866;48.670;18.260;2024-02-15T12:37:23;15.20;;;5.82;;
49051;SDS011;34866;48.670;18.260;2024-02-15T12:39:50;12.77;;;6.22;;
49051;SDS011;34866;48.670;18.260;2024-02-15T12:42:18;11.63;;;5.68;;
49051;SDS011;34866;48.670;18.260;2024-02-15T12:44:46;12.60;;;5.70;;
49051;SDS011;34866;48.670;18.260;2024-02-15T12:47:19;14.35;;;5.88;;
49051;SDS011;34866;48.670;18.260;2024-02-15T12:49:45;12.68;;;6.28;;
49051;SDS011;34866;48.670;18.260;2024-02-15T12:57:34;9.07;;;4.97;;
49051;SDS011;34866;48.670;18.260;2024-02-15T13:00:01;12.55;;;5.68;;
49051;SDS011;34866;48.670;18.260;2024-02-15T13:05:02;10.65;;;5.65;;
49051;SDS011;34866;48.670;18.260;2024-02-15T13:07:28;11.57;;;5.80;;
49051;SDS011;34866;48.670;18.260;2024-02-15T13:09:54;10.82;;;4.95;;
49051;SDS011;34866;48.670;18.260;2024-02-15T13:12:20;17.75;;;6.28;;
49051;SDS011;34866;48.670;18.260;2024-02-15T13:14:46;11.65;;;5.32;;
49051;SDS011;34866;48.670;18.260;2024-02-15T13:17:12;16.67;;;5.82;;
49051;SDS011;34866;48.670;18.260;2024-02-15T13:19:39;16.15;;;6.13;;
49051;SDS011;34866;48.670;18.260;2024-02-15T13:22:10;13.30;;;5.78;;
49051;SDS011;34866;48.670;18.260;2024-02-15T13:24:36;13.15;;;5.65;;
49051;SDS011;34866;48.670;18.260;2024-02-15T13:27:04;14.43;;;6.35;;
49051;SDS011;34866;48.670;18.260;2024-02-15T13:29:30;11.50;;;5.15;;
49051;SDS011;34866;48.670;18.260;2024-02-15T13:31:57;11.32;;;5.03;;
49051;SDS011;34866;48.670;18.260;2024-02-15T13:34:25;8.13;;;4.75;;
49051;SDS011;34866;48.670;18.260;2024-02-15T13:36:51;12.02;;;6.75;;
49051;SDS011;34866;48.670;18.260;2024-02-15T13:39:17;12.05;;;5.65;;
49051;SDS011;34866;48.670;18.260;2024-02-15T13:41:46;17.13;;;7.00;;
49051;SDS011;34866;48.670;18.260;2024-02-15T13:44:12;12.75;;;5.93;;
49051;SDS011;34866;48.670;18.260;2024-02-15T13:46:41;13.50;;;5.13;;
49051;SDS011;34866;48.670;18.260;2024-02-15T13:49:09;16.98;;;6.43;;
49051;SDS011;34866;48.670;18.260;2024-02-15T13:51:38;8.98;;;5.50;;
49051;SDS011;34866;48.670;18.260;2024-02-15T13:54:04;12.63;;;5.95;;
49051;SDS011;34866;48.670;18.260;2024-02-15T13:56:30;15.73;;;6.28;;
49051;SDS011;34866;48.670;18.260;2024-02-15T13:58:56;16.10;;;6.05;;
49051;SDS011;34866;48.670;18.260;2024-02-15T14:01:23;11.32;;;6.13;;
49051;SDS011;34866;48.670;18.260;2024-02-15T14:03:50;11.00;;;6.03;;
49051;SDS011;34866;48.670;18.260;2024-02-15T14:06:17;10.45;;;5.80;;
49051;SDS011;34866;48.670;18.260;2024-02-15T14:08:43;13.10;;;5.90;;
49051;SDS011;34866;48.670;18.260;2024-02-15T14:11:09;13.45;;;5.53;;
49051;SDS011;34866;48.670;18.260;2024-02-15T14:13:35;13.02;;;7.60;;
49051;SDS011;34866;48.670;18.260;2024-02-15T14:16:01;12.35;;;6.80;;
49051;SDS011;34866;48.670;18.260;2024-02-15T14:18:28;17.60;;;6.35;;
49051;SDS011;34866;48.670;18.260;2024-02-15T14:20:54;15.93;;;7.10;;
49051;SDS011;34866;48.670;18.260;2024-02-15T14:23:20;14.30;;;7.82;;
49051;SDS011;34866;48.670;18.260;2024-02-15T14:25:46;15.88;;;7.57;;
49051;SDS011;34866;48.670;18.260;2024-02-15T14:28:15;14.80;;;7.25;;
49051;SDS011;34866;48.670;18.260;2024-02-15T14:30:41;13.75;;;6.78;;
49051;SDS011;34866;48.670;18.260;2024-02-15T14:33:26;15.70;;;6.57;;
49051;SDS011;34866;48.670;18.260;2024-02-15T14:35:52;10.65;;;6.38;;
49051;SDS011;34866;48.670;18.260;2024-02-15T14:38:18;18.88;;;7.90;;
49051;SDS011;34866;48.670;18.260;2024-02-15T14:40:46;22.80;;;8.48;;
49051;SDS011;34866;48.670;18.260;2024-02-15T14:43:22;20.60;;;8.90;;
49051;SDS011;34866;48.670;18.260;2024-02-15T14:45:50;25.55;;;9.15;;
49051;SDS011;34866;48.670;18.260;2024-02-15T14:48:16;32.33;;;10.23;;
49051;SDS011;34866;48.670;18.260;2024-02-15T14:50:43;28.83;;;9.93;;
49051;SDS011;34866;48.670;18.260;2024-02-15T14:53:09;26.30;;;11.00;;
49051;SDS011;34866;48.670;18.260;2024-02-15T14:55:36;24.40;;;12.02;;
49051;SDS011;34866;48.670;18.260;2024-02-15T14:58:08;23.02;;;9.45;;
49051;SDS011;34866;48.670;18.260;2024-02-15T15:00:34;24.13;;;9.57;;
49051;SDS011;34866;48.670;18.260;2024-02-15T15:03:02;23.98;;;10.18;;
49051;SDS011;34866;48.670;18.260;2024-02-15T15:05:28;17.95;;;9.20;;
49051;SDS011;34866;48.670;18.260;2024-02-15T15:08:14;20.25;;;9.73;;